Kezdőlap
METAR-TAF:

METAR-TAF

Repülőterek :

Sparta, Wisconsin, Amerikai Egyesült Államok

földrajzi szélesség: 43-57-30N, földrajzi hosszúság: 090-44-16W, magasság: 255 m

Jelenlegi meteorológiai megfigyelések

A jelentés 1 órával és 9 perccel ezelõtt készült, 11:55 UTC
Keleti szél 9 kt széllökések: 16 kt
Hőmérséklet 8°C
Páratartalom 57%
Légköri nyomás 1015 hPa
Látótávolság: 16.1 km
Derült ég

METAR: KCMY 161155Z AUTO 10009G16KT 10SM CLR 08/M00 A2998 RMK AO2 SLP156 T00821001 10133 20078 55001 $

Idő: 08:04 (13:04 UTC)


TAF: hiányzik

Meteorológiai megfigyelések és előrejelzések több, mint 4000 repülőtéren (METAR és TAF jelentéseket).

A térképen piros és sárga pontok jelzik az elérhető meteorológiai állomásokat.

Mozgassa az egeret a pont fölött, hogy megjelenjen az állomás neve.

Azután kattintson az időjárási megfigyelések és előrejelzések megtekintéséhez.

A térkép megváltoztatása: kattintson a fekete keresztel jelölt zöld gombra ráközelítéshez, a vonallal jelölt zöld gombra távolításhoz, vagy a zöld nyilakra a szomszédos térképek eléréséhez.


METAR-TAF: